NCAR-RAP Real-Time Weather Data

Output produced by METARs form (10 April 2020  06:15 UTC)
found at http://weather.rap.ucar.edu/surface/
 
KDEQ 100553Z AUTO 02003KT 10SM CLR 16/04 A3002 RMK AO1 SLP161 T01560044 10222 20139 402390133 51023
KDEQ 100453Z AUTO 11005KT 10SM CLR 17/06 A2999 RMK AO1 SLP152 T01670056
KDEQ 100353Z AUTO 06004KT 10SM CLR 18/04 A2998 RMK AO1 SLP146 T01830044
KDEQ 100253Z AUTO 04005KT 10SM FEW070 18/07 A2995 RMK AO1 SLP137 T01830072 53019
KDEQ 100153Z AUTO 00000KT 10SM CLR 18/08 A2991 RMK AO1 SLP125 T01780083
KDEQ 100053Z AUTO 04003KT 10SM CLR 19/07 A2989 RMK AO1 SLP118 T01940072
KDEQ 092353Z AUTO 00000KT 10SM CLR 22/12 A2989 RMK AO1 SLP118 T02220122 10239 20222 55001
KDEQ 092253Z AUTO 00000KT 10SM CLR 23/11 A2988 RMK AO1 SLP114 T02280106
KDEQ 092153Z AUTO 13005KT 10SM CLR 23/08 A2989 RMK AO1 SLP116 T02280083
KDEQ 092053Z AUTO 09006KT 10SM CLR 23/08 A2990 RMK AO1 SLP119 T02280083 58024
KDEQ 091953Z AUTO 06009KT 10SM CLR 24/08 A2992 RMK AO1 SLP125 T02390083
KDEQ 091853Z AUTO 10010KT 10SM CLR 23/07 A2996 RMK AO1 SLP140 T02330072
KDEQ 091753Z AUTO 04006KT 10SM FEW001 23/08 A2997 RMK AO1 SLP143 60123 T02330078 10233 20133 50003
KDEQ 091653Z AUTO 11011KT 10SM CLR 23/08 A2999 RMK AO1 SLP149 P0123 T02280078
KDEQ 091614Z AUTO 08009KT 10SM FEW002 22/08 A2998 RMK AO1 P0015 T02220078
KDEQ 091553Z AUTO 10011G18KT 10SM CLR 21/06 A2998 RMK AO1 SLP147 T02110061
KDEQ 091453Z AUTO 07012KT 10SM CLR 20/08 A2996 RMK AO1 SLP140 T02000078 51029
KDEQ 091403Z AUTO 08009KT 10SM FEW002 19/09 A2994 RMK AO1 T01940094
KDEQ 091353Z AUTO 07006KT 10SM CLR 19/09 A2994 RMK AO1 SLP135 T01890094
KDEQ 091253Z AUTO 09006KT 10SM CLR 16/13 A2992 RMK AO1 SLP128 T01610128
KDEQ 091153Z AUTO 00000KT 10SM CLR 14/12 A2987 RMK AO1 SLP110 T01390117 10206 20133 53024 $
KDEQ 091053Z AUTO 10004KT 10SM CLR 17/11 A2983 RMK AO1 SLP094 T01720111 $
KDEQ 090953Z AUTO 10004KT 10SM CLR 19/11 A2981 RMK AO1 SLP088 T01890111 $
KDEQ 090853Z AUTO VRB04KT 10SM CLR 19/14 A2980 RMK AO1 SLP085 T01940139 51010 $
KDEQ 090758Z AUTO 12003KT 3SM BR SCT006 17/16 A2979 RMK AO1 T01670156 $
KDEQ 090753Z AUTO 12003KT 1SM BR VV006 16/15 A2979 RMK AO1 SLP084 T01610150 $
KDEQ 090748Z AUTO 09003KT 3/4SM BR VV006 16/15 A2979 RMK AO1 VIS 1/2V2 $
KDEQ 090741Z AUTO 00000KT 1 1/4SM BR SCT007 16/15 A2979 RMK AO1 T01610150 $
KDEQ 090732Z AUTO 00000KT 3/4SM BR VV006 16/15 A2979 RMK AO1 T01560150 $
KDEQ 090716Z AUTO 00000KT 1 1/2SM BR SCT002 17/16 A2979 RMK AO1 T01670156 $